sensor_id;sensor_type;location;lat;lon;timestamp;P1;durP1;ratioP1;P2;durP2;ratioP2
49502;SDS011;35409;48.776;9.204;2022-12-05T00:00:13;39.47;;;16.75;;
49502;SDS011;35409;48.776;9.204;2022-12-05T00:02:40;35.80;;;16.85;;
49502;SDS011;35409;48.776;9.204;2022-12-05T00:05:05;36.97;;;17.15;;
49502;SDS011;35409;48.776;9.204;2022-12-05T00:07:31;31.05;;;16.30;;
49502;SDS011;35409;48.776;9.204;2022-12-05T00:09:57;31.77;;;16.02;;
49502;SDS011;35409;48.776;9.204;2022-12-05T00:12:22;34.47;;;16.83;;
49502;SDS011;35409;48.776;9.204;2022-12-05T00:14:48;35.65;;;16.55;;
49502;SDS011;35409;48.776;9.204;2022-12-05T00:17:14;34.25;;;17.35;;
49502;SDS011;35409;48.776;9.204;2022-12-05T00:19:39;34.50;;;17.23;;
49502;SDS011;35409;48.776;9.204;2022-12-05T00:22:05;34.53;;;17.33;;
49502;SDS011;35409;48.776;9.204;2022-12-05T00:24:30;33.65;;;16.48;;
49502;SDS011;35409;48.776;9.204;2022-12-05T00:26:56;32.15;;;16.35;;
49502;SDS011;35409;48.776;9.204;2022-12-05T00:29:22;32.17;;;16.25;;
49502;SDS011;35409;48.776;9.204;2022-12-05T00:31:47;31.38;;;16.88;;
49502;SDS011;35409;48.776;9.204;2022-12-05T00:34:13;33.47;;;16.90;;
49502;SDS011;35409;48.776;9.204;2022-12-05T00:36:38;31.55;;;17.17;;
49502;SDS011;35409;48.776;9.204;2022-12-05T00:39:06;36.38;;;17.02;;
49502;SDS011;35409;48.776;9.204;2022-12-05T00:41:33;35.15;;;15.57;;
49502;SDS011;35409;48.776;9.204;2022-12-05T00:43:59;33.10;;;15.75;;
49502;SDS011;35409;48.776;9.204;2022-12-05T00:46:27;35.90;;;17.00;;
49502;SDS011;35409;48.776;9.204;2022-12-05T00:48:54;30.60;;;16.25;;
49502;SDS011;35409;48.776;9.204;2022-12-05T00:51:21;31.63;;;15.55;;
49502;SDS011;35409;48.776;9.204;2022-12-05T00:53:51;35.42;;;17.05;;
49502;SDS011;35409;48.776;9.204;2022-12-05T00:56:21;30.08;;;14.50;;
49502;SDS011;35409;48.776;9.204;2022-12-05T00:58:48;26.73;;;14.00;;
49502;SDS011;35409;48.776;9.204;2022-12-05T01:01:17;32.60;;;15.07;;
49502;SDS011;35409;48.776;9.204;2022-12-05T01:03:45;33.67;;;15.47;;
49502;SDS011;35409;48.776;9.204;2022-12-05T01:06:12;30.48;;;15.40;;
49502;SDS011;35409;48.776;9.204;2022-12-05T01:08:39;30.08;;;13.88;;
49502;SDS011;35409;48.776;9.204;2022-12-05T01:11:05;34.20;;;15.32;;
49502;SDS011;35409;48.776;9.204;2022-12-05T01:13:31;32.58;;;14.88;;
49502;SDS011;35409;48.776;9.204;2022-12-05T01:15:57;28.27;;;15.15;;
49502;SDS011;35409;48.776;9.204;2022-12-05T01:18:23;32.88;;;14.80;;
49502;SDS011;35409;48.776;9.204;2022-12-05T01:20:51;32.65;;;15.48;;
49502;SDS011;35409;48.776;9.204;2022-12-05T01:23:17;26.92;;;13.95;;
49502;SDS011;35409;48.776;9.204;2022-12-05T01:25:46;33.33;;;14.40;;
49502;SDS011;35409;48.776;9.204;2022-12-05T01:28:12;29.35;;;14.60;;
49502;SDS011;35409;48.776;9.204;2022-12-05T01:30:40;30.52;;;15.25;;
49502;SDS011;35409;48.776;9.204;2022-12-05T01:33:13;29.92;;;15.20;;
49502;SDS011;35409;48.776;9.204;2022-12-05T01:35:39;28.63;;;14.00;;
49502;SDS011;35409;48.776;9.204;2022-12-05T01:38:06;30.77;;;14.65;;
49502;SDS011;35409;48.776;9.204;2022-12-05T01:40:33;30.00;;;14.10;;
49502;SDS011;35409;48.776;9.204;2022-12-05T01:43:02;29.27;;;13.77;;
49502;SDS011;35409;48.776;9.204;2022-12-05T01:45:38;29.45;;;13.48;;
49502;SDS011;35409;48.776;9.204;2022-12-05T01:48:25;27.08;;;13.15;;
49502;SDS011;35409;48.776;9.204;2022-12-05T01:50:54;27.40;;;13.60;;
49502;SDS011;35409;48.776;9.204;2022-12-05T01:53:19;30.13;;;13.57;;
49502;SDS011;35409;48.776;9.204;2022-12-05T01:55:46;25.73;;;13.45;;
49502;SDS011;35409;48.776;9.204;2022-12-05T01:58:14;27.88;;;13.35;;
49502;SDS011;35409;48.776;9.204;2022-12-05T02:00:40;26.55;;;13.75;;
49502;SDS011;35409;48.776;9.204;2022-12-05T02:03:07;28.85;;;13.80;;
49502;SDS011;35409;48.776;9.204;2022-12-05T02:05:36;29.50;;;13.77;;
49502;SDS011;35409;48.776;9.204;2022-12-05T02:08:03;26.00;;;13.25;;
49502;SDS011;35409;48.776;9.204;2022-12-05T02:10:33;28.70;;;13.73;;
49502;SDS011;35409;48.776;9.204;2022-12-05T02:13:19;27.38;;;13.30;;
49502;SDS011;35409;48.776;9.204;2022-12-05T02:16:04;23.58;;;11.57;;
49502;SDS011;35409;48.776;9.204;2022-12-05T02:29:21;28.00;;;13.48;;
49502;SDS011;35409;48.776;9.204;2022-12-05T02:32:42;27.40;;;12.15;;
49502;SDS011;35409;48.776;9.204;2022-12-05T02:35:40;25.88;;;12.77;;
49502;SDS011;35409;48.776;9.204;2022-12-05T02:43:55;24.98;;;12.82;;
49502;SDS011;35409;48.776;9.204;2022-12-05T02:46:33;27.52;;;12.82;;
49502;SDS011;35409;48.776;9.204;2022-12-05T02:49:03;29.75;;;13.05;;
49502;SDS011;35409;48.776;9.204;2022-12-05T02:51:33;31.55;;;13.82;;
49502;SDS011;35409;48.776;9.204;2022-12-05T02:54:04;32.85;;;15.05;;
49502;SDS011;35409;48.776;9.204;2022-12-05T02:56:34;30.05;;;13.55;;
49502;SDS011;35409;48.776;9.204;2022-12-05T02:59:01;36.22;;;15.15;;
49502;SDS011;35409;48.776;9.204;2022-12-05T03:01:28;34.95;;;14.35;;
49502;SDS011;35409;48.776;9.204;2022-12-05T03:03:55;31.40;;;14.18;;
49502;SDS011;35409;48.776;9.204;2022-12-05T03:06:27;31.88;;;14.25;;
49502;SDS011;35409;48.776;9.204;2022-12-05T03:11:27;32.97;;;15.43;;
49502;SDS011;35409;48.776;9.204;2022-12-05T03:14:03;31.65;;;13.68;;
49502;SDS011;35409;48.776;9.204;2022-12-05T03:16:43;36.63;;;16.23;;
49502;SDS011;35409;48.776;9.204;2022-12-05T03:19:17;28.00;;;13.60;;
49502;SDS011;35409;48.776;9.204;2022-12-05T03:21:51;33.28;;;14.88;;
49502;SDS011;35409;48.776;9.204;2022-12-05T03:24:47;29.67;;;13.10;;
49502;SDS011;35409;48.776;9.204;2022-12-05T03:27:48;34.13;;;14.43;;
49502;SDS011;35409;48.776;9.204;2022-12-05T03:32:42;30.65;;;14.43;;
49502;SDS011;35409;48.776;9.204;2022-12-05T03:35:26;34.15;;;14.32;;
49502;SDS011;35409;48.776;9.204;2022-12-05T03:38:06;38.85;;;16.83;;
49502;SDS011;35409;48.776;9.204;2022-12-05T03:40:52;32.42;;;15.85;;
49502;SDS011;35409;48.776;9.204;2022-12-05T03:46:31;32.50;;;14.63;;
49502;SDS011;35409;48.776;9.204;2022-12-05T03:49:03;37.00;;;15.13;;
49502;SDS011;35409;48.776;9.204;2022-12-05T03:51:39;36.28;;;15.57;;
49502;SDS011;35409;48.776;9.204;2022-12-05T03:54:20;31.13;;;14.07;;
49502;SDS011;35409;48.776;9.204;2022-12-05T03:57:00;32.45;;;14.52;;
49502;SDS011;35409;48.776;9.204;2022-12-05T03:59:33;29.23;;;12.90;;
49502;SDS011;35409;48.776;9.204;2022-12-05T04:02:40;26.88;;;12.90;;
49502;SDS011;35409;48.776;9.204;2022-12-05T04:05:13;33.63;;;14.48;;
49502;SDS011;35409;48.776;9.204;2022-12-05T04:07:57;33.88;;;15.10;;
49502;SDS011;35409;48.776;9.204;2022-12-05T04:10:45;29.80;;;13.90;;
49502;SDS011;35409;48.776;9.204;2022-12-05T04:13:13;35.08;;;15.07;;
49502;SDS011;35409;48.776;9.204;2022-12-05T04:15:49;32.95;;;14.68;;
49502;SDS011;35409;48.776;9.204;2022-12-05T04:18:42;31.73;;;14.52;;
49502;SDS011;35409;48.776;9.204;2022-12-05T04:21:11;30.77;;;14.45;;
49502;SDS011;35409;48.776;9.204;2022-12-05T04:23:57;30.75;;;14.15;;
49502;SDS011;35409;48.776;9.204;2022-12-05T04:26:42;29.13;;;15.15;;
49502;SDS011;35409;48.776;9.204;2022-12-05T04:29:24;29.63;;;13.65;;
49502;SDS011;35409;48.776;9.204;2022-12-05T04:31:57;30.83;;;13.98;;
49502;SDS011;35409;48.776;9.204;2022-12-05T04:34:28;29.20;;;14.20;;
49502;SDS011;35409;48.776;9.204;2022-12-05T04:36:59;31.23;;;14.45;;
49502;SDS011;35409;48.776;9.204;2022-12-05T04:39:33;35.42;;;16.20;;
49502;SDS011;35409;48.776;9.204;2022-12-05T04:42:09;30.90;;;14.25;;
49502;SDS011;35409;48.776;9.204;2022-12-05T04:44:58;31.10;;;14.57;;
49502;SDS011;35409;48.776;9.204;2022-12-05T04:47:29;35.67;;;15.57;;
49502;SDS011;35409;48.776;9.204;2022-12-05T04:49:58;30.73;;;13.18;;
49502;SDS011;35409;48.776;9.204;2022-12-05T04:52:25;31.33;;;14.23;;
49502;SDS011;35409;48.776;9.204;2022-12-05T04:55:01;30.17;;;13.40;;
49502;SDS011;35409;48.776;9.204;2022-12-05T04:57:33;31.10;;;13.70;;
49502;SDS011;35409;48.776;9.204;2022-12-05T05:00:04;33.47;;;14.45;;
49502;SDS011;35409;48.776;9.204;2022-12-05T05:02:32;28.80;;;13.75;;
49502;SDS011;35409;48.776;9.204;2022-12-05T05:05:09;28.10;;;14.48;;
49502;SDS011;35409;48.776;9.204;2022-12-05T05:07:50;31.05;;;14.27;;
49502;SDS011;35409;48.776;9.204;2022-12-05T05:12:45;32.60;;;13.68;;
49502;SDS011;35409;48.776;9.204;2022-12-05T05:15:11;30.60;;;14.90;;
49502;SDS011;35409;48.776;9.204;2022-12-05T05:17:37;28.05;;;14.60;;
49502;SDS011;35409;48.776;9.204;2022-12-05T05:20:03;37.30;;;15.43;;
49502;SDS011;35409;48.776;9.204;2022-12-05T05:22:47;29.88;;;13.85;;
49502;SDS011;35409;48.776;9.204;2022-12-05T05:25:14;34.95;;;15.85;;
49502;SDS011;35409;48.776;9.204;2022-12-05T05:27:39;28.85;;;14.68;;
49502;SDS011;35409;48.776;9.204;2022-12-05T05:30:05;31.23;;;15.07;;
49502;SDS011;35409;48.776;9.204;2022-12-05T05:32:32;32.95;;;15.60;;
49502;SDS011;35409;48.776;9.204;2022-12-05T05:34:57;30.25;;;14.65;;
49502;SDS011;35409;48.776;9.204;2022-12-05T05:37:23;37.10;;;16.48;;
49502;SDS011;35409;48.776;9.204;2022-12-05T05:39:49;31.02;;;15.07;;
49502;SDS011;35409;48.776;9.204;2022-12-05T05:42:14;32.53;;;16.38;;
49502;SDS011;35409;48.776;9.204;2022-12-05T05:44:40;31.08;;;14.95;;
49502;SDS011;35409;48.776;9.204;2022-12-05T05:47:05;38.55;;;15.77;;
49502;SDS011;35409;48.776;9.204;2022-12-05T05:49:31;33.90;;;16.10;;
49502;SDS011;35409;48.776;9.204;2022-12-05T05:51:56;35.45;;;15.35;;
49502;SDS011;35409;48.776;9.204;2022-12-05T05:54:22;31.90;;;15.20;;
49502;SDS011;35409;48.776;9.204;2022-12-05T05:56:47;28.70;;;14.95;;
49502;SDS011;35409;48.776;9.204;2022-12-05T05:59:13;33.60;;;15.85;;
49502;SDS011;35409;48.776;9.204;2022-12-05T06:01:39;29.80;;;15.15;;
49502;SDS011;35409;48.776;9.204;2022-12-05T06:04:04;31.35;;;14.10;;
49502;SDS011;35409;48.776;9.204;2022-12-05T06:06:31;31.10;;;13.77;;
49502;SDS011;35409;48.776;9.204;2022-12-05T06:08:57;31.10;;;15.05;;
49502;SDS011;35409;48.776;9.204;2022-12-05T06:11:24;31.90;;;15.02;;
49502;SDS011;35409;48.776;9.204;2022-12-05T06:13:50;31.83;;;15.65;;
49502;SDS011;35409;48.776;9.204;2022-12-05T06:16:17;30.92;;;15.13;;
49502;SDS011;35409;48.776;9.204;2022-12-05T06:18:43;32.95;;;14.95;;
49502;SDS011;35409;48.776;9.204;2022-12-05T06:21:09;30.15;;;14.18;;
49502;SDS011;35409;48.776;9.204;2022-12-05T06:23:36;28.27;;;13.65;;
49502;SDS011;35409;48.776;9.204;2022-12-05T06:26:03;33.08;;;15.27;;
49502;SDS011;35409;48.776;9.204;2022-12-05T06:28:29;28.55;;;13.45;;
49502;SDS011;35409;48.776;9.204;2022-12-05T06:30:55;30.20;;;14.18;;
49502;SDS011;35409;48.776;9.204;2022-12-05T06:33:21;33.60;;;15.07;;
49502;SDS011;35409;48.776;9.204;2022-12-05T06:35:46;35.08;;;16.85;;
49502;SDS011;35409;48.776;9.204;2022-12-05T06:38:12;35.13;;;16.38;;
49502;SDS011;35409;48.776;9.204;2022-12-05T06:40:41;32.65;;;15.15;;
49502;SDS011;35409;48.776;9.204;2022-12-05T06:45:35;30.45;;;15.73;;
49502;SDS011;35409;48.776;9.204;2022-12-05T06:48:02;29.25;;;14.38;;
49502;SDS011;35409;48.776;9.204;2022-12-05T06:50:27;30.80;;;15.27;;
49502;SDS011;35409;48.776;9.204;2022-12-05T06:52:53;36.95;;;15.93;;
49502;SDS011;35409;48.776;9.204;2022-12-05T06:55:19;33.00;;;14.95;;
49502;SDS011;35409;48.776;9.204;2022-12-05T06:57:44;29.25;;;14.30;;
49502;SDS011;35409;48.776;9.204;2022-12-05T07:00:10;30.10;;;14.90;;
49502;SDS011;35409;48.776;9.204;2022-12-05T07:02:54;27.10;;;13.75;;
49502;SDS011;35409;48.776;9.204;2022-12-05T07:05:20;28.40;;;13.48;;
49502;SDS011;35409;48.776;9.204;2022-12-05T07:07:46;23.25;;;12.90;;
49502;SDS011;35409;48.776;9.204;2022-12-05T07:10:11;33.85;;;15.10;;
49502;SDS011;35409;48.776;9.204;2022-12-05T07:12:37;30.00;;;14.38;;
49502;SDS011;35409;48.776;9.204;2022-12-05T07:15:02;30.63;;;14.77;;
49502;SDS011;35409;48.776;9.204;2022-12-05T07:17:28;34.67;;;15.55;;
49502;SDS011;35409;48.776;9.204;2022-12-05T07:19:54;33.47;;;15.38;;
49502;SDS011;35409;48.776;9.204;2022-12-05T07:22:20;32.28;;;15.65;;
49502;SDS011;35409;48.776;9.204;2022-12-05T07:24:47;27.10;;;14.30;;
49502;SDS011;35409;48.776;9.204;2022-12-05T07:27:13;22.52;;;12.48;;
49502;SDS011;35409;48.776;9.204;2022-12-05T07:29:39;27.80;;;12.70;;
49502;SDS011;35409;48.776;9.204;2022-12-05T07:32:05;27.67;;;14.68;;
49502;SDS011;35409;48.776;9.204;2022-12-05T07:34:31;24.02;;;11.60;;
49502;SDS011;35409;48.776;9.204;2022-12-05T07:36:56;23.63;;;12.38;;
49502;SDS011;35409;48.776;9.204;2022-12-05T07:39:22;25.13;;;12.23;;
49502;SDS011;35409;48.776;9.204;2022-12-05T07:41:48;22.70;;;11.98;;
49502;SDS011;35409;48.776;9.204;2022-12-05T07:44:13;23.70;;;12.48;;
49502;SDS011;35409;48.776;9.204;2022-12-05T07:46:39;20.67;;;11.23;;
49502;SDS011;35409;48.776;9.204;2022-12-05T07:49:05;25.50;;;11.63;;
49502;SDS011;35409;48.776;9.204;2022-12-05T07:51:32;28.15;;;13.43;;
49502;SDS011;35409;48.776;9.204;2022-12-05T07:53:58;24.77;;;12.07;;
49502;SDS011;35409;48.776;9.204;2022-12-05T07:56:23;22.48;;;11.73;;
49502;SDS011;35409;48.776;9.204;2022-12-05T07:58:49;25.08;;;12.23;;
49502;SDS011;35409;48.776;9.204;2022-12-05T08:01:22;27.45;;;13.68;;
49502;SDS011;35409;48.776;9.204;2022-12-05T08:03:50;22.42;;;11.98;;
49502;SDS011;35409;48.776;9.204;2022-12-05T08:06:19;23.58;;;12.63;;
49502;SDS011;35409;48.776;9.204;2022-12-05T08:08:46;22.45;;;12.48;;
49502;SDS011;35409;48.776;9.204;2022-12-05T08:11:14;28.52;;;13.32;;
49502;SDS011;35409;48.776;9.204;2022-12-05T08:13:43;29.60;;;13.23;;
49502;SDS011;35409;48.776;9.204;2022-12-05T08:16:10;25.40;;;12.27;;
49502;SDS011;35409;48.776;9.204;2022-12-05T08:18:36;21.45;;;11.77;;
49502;SDS011;35409;48.776;9.204;2022-12-05T08:21:10;23.52;;;13.13;;
49502;SDS011;35409;48.776;9.204;2022-12-05T08:23:36;22.10;;;11.90;;
49502;SDS011;35409;48.776;9.204;2022-12-05T08:26:10;22.90;;;11.68;;
49502;SDS011;35409;48.776;9.204;2022-12-05T08:28:36;20.65;;;11.63;;
49502;SDS011;35409;48.776;9.204;2022-12-05T08:31:03;18.23;;;11.00;;
49502;SDS011;35409;48.776;9.204;2022-12-05T08:33:30;16.88;;;9.82;;
49502;SDS011;35409;48.776;9.204;2022-12-05T08:35:56;16.55;;;9.13;;
49502;SDS011;35409;48.776;9.204;2022-12-05T08:38:22;13.55;;;8.60;;
49502;SDS011;35409;48.776;9.204;2022-12-05T08:40:47;18.45;;;10.13;;
49502;SDS011;35409;48.776;9.204;2022-12-05T08:43:13;15.93;;;9.45;;
49502;SDS011;35409;48.776;9.204;2022-12-05T08:45:39;15.68;;;9.27;;
49502;SDS011;35409;48.776;9.204;2022-12-05T08:48:05;18.65;;;10.18;;
49502;SDS011;35409;48.776;9.204;2022-12-05T08:50:31;15.13;;;8.85;;
49502;SDS011;35409;48.776;9.204;2022-12-05T08:52:57;14.48;;;8.68;;
49502;SDS011;35409;48.776;9.204;2022-12-05T08:55:23;14.13;;;8.98;;
49502;SDS011;35409;48.776;9.204;2022-12-05T08:57:49;18.10;;;10.02;;
49502;SDS011;35409;48.776;9.204;2022-12-05T09:00:15;15.73;;;9.57;;
49502;SDS011;35409;48.776;9.204;2022-12-05T09:02:41;17.15;;;10.10;;
49502;SDS011;35409;48.776;9.204;2022-12-05T09:05:07;16.80;;;10.13;;
49502;SDS011;35409;48.776;9.204;2022-12-05T09:07:34;18.35;;;10.13;;
49502;SDS011;35409;48.776;9.204;2022-12-05T09:10:00;17.20;;;10.43;;
49502;SDS011;35409;48.776;9.204;2022-12-05T09:12:26;15.18;;;9.95;;
49502;SDS011;35409;48.776;9.204;2022-12-05T09:14:52;17.27;;;11.07;;
49502;SDS011;35409;48.776;9.204;2022-12-05T09:17:18;16.77;;;9.38;;
49502;SDS011;35409;48.776;9.204;2022-12-05T09:19:43;17.88;;;10.02;;
49502;SDS011;35409;48.776;9.204;2022-12-05T09:22:09;16.90;;;10.05;;
49502;SDS011;35409;48.776;9.204;2022-12-05T09:24:35;17.30;;;9.23;;
49502;SDS011;35409;48.776;9.204;2022-12-05T09:27:02;15.63;;;9.60;;
49502;SDS011;35409;48.776;9.204;2022-12-05T09:29:28;13.07;;;8.65;;
49502;SDS011;35409;48.776;9.204;2022-12-05T09:31:55;14.88;;;8.55;;
49502;SDS011;35409;48.776;9.204;2022-12-05T09:34:21;12.73;;;8.52;;
49502;SDS011;35409;48.776;9.204;2022-12-05T09:36:49;15.10;;;8.85;;
49502;SDS011;35409;48.776;9.204;2022-12-05T09:39:16;16.35;;;9.88;;
49502;SDS011;35409;48.776;9.204;2022-12-05T09:44:43;16.35;;;8.13;;
49502;SDS011;35409;48.776;9.204;2022-12-05T09:52:34;17.90;;;8.15;;
49502;SDS011;35409;48.776;9.204;2022-12-05T09:55:14;12.48;;;7.43;;
49502;SDS011;35409;48.776;9.204;2022-12-05T09:57:47;10.57;;;7.13;;
49502;SDS011;35409;48.776;9.204;2022-12-05T10:00:25;12.77;;;7.20;;
49502;SDS011;35409;48.776;9.204;2022-12-05T10:05:47;10.90;;;6.78;;
49502;SDS011;35409;48.776;9.204;2022-12-05T10:08:57;12.10;;;7.47;;
49502;SDS011;35409;48.776;9.204;2022-12-05T10:11:48;10.23;;;6.53;;
49502;SDS011;35409;48.776;9.204;2022-12-05T10:17:19;8.35;;;5.88;;
49502;SDS011;35409;48.776;9.204;2022-12-05T10:19:57;11.73;;;7.30;;
49502;SDS011;35409;48.776;9.204;2022-12-05T10:22:32;9.88;;;6.40;;
49502;SDS011;35409;48.776;9.204;2022-12-05T10:25:13;8.40;;;6.15;;
49502;SDS011;35409;48.776;9.204;2022-12-05T10:28:02;10.32;;;6.10;;
49502;SDS011;35409;48.776;9.204;2022-12-05T10:30:36;9.05;;;6.85;;
49502;SDS011;35409;48.776;9.204;2022-12-05T10:33:39;10.77;;;5.97;;
49502;SDS011;35409;48.776;9.204;2022-12-05T10:36:01;8.40;;;6.13;;
49502;SDS011;35409;48.776;9.204;2022-12-05T10:38:33;8.88;;;6.15;;
49502;SDS011;35409;48.776;9.204;2022-12-05T10:41:02;9.70;;;5.72;;
49502;SDS011;35409;48.776;9.204;2022-12-05T10:43:33;10.15;;;6.13;;
49502;SDS011;35409;48.776;9.204;2022-12-05T10:46:01;15.70;;;9.20;;
49502;SDS011;35409;48.776;9.204;2022-12-05T10:48:27;20.95;;;9.65;;
49502;SDS011;35409;48.776;9.204;2022-12-05T10:50:55;16.88;;;8.80;;
49502;SDS011;35409;48.776;9.204;2022-12-05T10:53:26;19.98;;;10.25;;
49502;SDS011;35409;48.776;9.204;2022-12-05T10:56:03;13.95;;;9.02;;
49502;SDS011;35409;48.776;9.204;2022-12-05T10:59:18;15.10;;;9.48;;
49502;SDS011;35409;48.776;9.204;2022-12-05T11:01:51;14.70;;;9.50;;
49502;SDS011;35409;48.776;9.204;2022-12-05T11:04:23;15.93;;;8.75;;
49502;SDS011;35409;48.776;9.204;2022-12-05T11:09:24;13.88;;;8.32;;
49502;SDS011;35409;48.776;9.204;2022-12-05T11:11:56;14.15;;;8.02;;
49502;SDS011;35409;48.776;9.204;2022-12-05T11:14:33;13.50;;;7.95;;
49502;SDS011;35409;48.776;9.204;2022-12-05T11:17:00;17.08;;;8.27;;
49502;SDS011;35409;48.776;9.204;2022-12-05T11:19:32;17.75;;;8.02;;
49502;SDS011;35409;48.776;9.204;2022-12-05T11:22:00;12.48;;;7.90;;
49502;SDS011;35409;48.776;9.204;2022-12-05T11:24:27;13.98;;;8.00;;
49502;SDS011;35409;48.776;9.204;2022-12-05T11:26:59;12.32;;;6.18;;
49502;SDS011;35409;48.776;9.204;2022-12-05T11:29:41;11.15;;;7.30;;
49502;SDS011;35409;48.776;9.204;2022-12-05T11:32:28;15.18;;;8.40;;
49502;SDS011;35409;48.776;9.204;2022-12-05T11:37:30;15.50;;;8.38;;
49502;SDS011;35409;48.776;9.204;2022-12-05T11:40:05;16.80;;;8.95;;
49502;SDS011;35409;48.776;9.204;2022-12-05T11:42:42;12.77;;;8.50;;
49502;SDS011;35409;48.776;9.204;2022-12-05T11:48:07;8.52;;;4.07;;
49502;SDS011;35409;48.776;9.204;2022-12-05T11:56:41;3.38;;;2.85;;
49502;SDS011;35409;48.776;9.204;2022-12-05T12:04:34;3.58;;;3.00;;
49502;SDS011;35409;48.776;9.204;2022-12-05T12:12:19;3.72;;;2.72;;
49502;SDS011;35409;48.776;9.204;2022-12-05T12:25:55;14.65;;;8.82;;
49502;SDS011;35409;48.776;9.204;2022-12-05T12:31:15;19.17;;;10.77;;
49502;SDS011;35409;48.776;9.204;2022-12-05T12:37:07;16.85;;;10.25;;
49502;SDS011;35409;48.776;9.204;2022-12-05T12:42:39;17.77;;;11.55;;
49502;SDS011;35409;48.776;9.204;2022-12-05T12:48:12;17.38;;;10.77;;
49502;SDS011;35409;48.776;9.204;2022-12-05T12:50:50;17.75;;;10.15;;
49502;SDS011;35409;48.776;9.204;2022-12-05T13:03:41;17.20;;;10.88;;
49502;SDS011;35409;48.776;9.204;2022-12-05T13:06:24;17.23;;;11.00;;
49502;SDS011;35409;48.776;9.204;2022-12-05T13:09:00;16.67;;;10.57;;
49502;SDS011;35409;48.776;9.204;2022-12-05T13:11:35;19.38;;;11.52;;
49502;SDS011;35409;48.776;9.204;2022-12-05T13:14:10;15.18;;;9.55;;
49502;SDS011;35409;48.776;9.204;2022-12-05T13:16:40;15.15;;;10.13;;
49502;SDS011;35409;48.776;9.204;2022-12-05T13:22:02;16.52;;;10.05;;
49502;SDS011;35409;48.776;9.204;2022-12-05T13:24:29;19.20;;;10.23;;
49502;SDS011;35409;48.776;9.204;2022-12-05T13:26:57;16.65;;;10.95;;
49502;SDS011;35409;48.776;9.204;2022-12-05T13:29:30;19.55;;;11.25;;
49502;SDS011;35409;48.776;9.204;2022-12-05T13:32:00;20.75;;;11.70;;
49502;SDS011;35409;48.776;9.204;2022-12-05T13:36:59;23.02;;;11.80;;
49502;SDS011;35409;48.776;9.204;2022-12-05T13:39:54;22.98;;;11.55;;
49502;SDS011;35409;48.776;9.204;2022-12-05T13:42:40;20.10;;;11.98;;
49502;SDS011;35409;48.776;9.204;2022-12-05T13:45:07;20.63;;;11.57;;
49502;SDS011;35409;48.776;9.204;2022-12-05T13:53:30;21.00;;;11.45;;
49502;SDS011;35409;48.776;9.204;2022-12-05T13:58:43;21.55;;;11.43;;
49502;SDS011;35409;48.776;9.204;2022-12-05T14:17:25;17.83;;;10.48;;
49502;SDS011;35409;48.776;9.204;2022-12-05T14:25:23;18.77;;;11.82;;
49502;SDS011;35409;48.776;9.204;2022-12-05T14:36:58;20.52;;;12.27;;
49502;SDS011;35409;48.776;9.204;2022-12-05T14:39:32;26.95;;;12.38;;
49502;SDS011;35409;48.776;9.204;2022-12-05T14:44:54;27.48;;;13.05;;
49502;SDS011;35409;48.776;9.204;2022-12-05T14:47:23;20.40;;;12.70;;
49502;SDS011;35409;48.776;9.204;2022-12-05T14:55:40;20.63;;;11.25;;
49502;SDS011;35409;48.776;9.204;2022-12-05T14:58:15;19.73;;;11.10;;
49502;SDS011;35409;48.776;9.204;2022-12-05T15:00:44;19.23;;;11.55;;
49502;SDS011;35409;48.776;9.204;2022-12-05T15:03:20;25.15;;;11.98;;
49502;SDS011;35409;48.776;9.204;2022-12-05T15:05:51;19.65;;;11.98;;
49502;SDS011;35409;48.776;9.204;2022-12-05T15:08:17;21.92;;;11.68;;
49502;SDS011;35409;48.776;9.204;2022-12-05T15:10:44;23.83;;;12.80;;
49502;SDS011;35409;48.776;9.204;2022-12-05T15:13:15;21.40;;;11.98;;
49502;SDS011;35409;48.776;9.204;2022-12-05T15:15:44;23.42;;;11.70;;
49502;SDS011;35409;48.776;9.204;2022-12-05T15:20:49;18.77;;;12.32;;
49502;SDS011;35409;48.776;9.204;2022-12-05T15:29:41;21.38;;;12.80;;
49502;SDS011;35409;48.776;9.204;2022-12-05T15:31:45;19.38;;;12.13;;
49502;SDS011;35409;48.776;9.204;2022-12-05T15:37:12;24.15;;;12.95;;
49502;SDS011;35409;48.776;9.204;2022-12-05T15:39:52;24.90;;;12.82;;
49502;SDS011;35409;48.776;9.204;2022-12-05T15:42:26;21.45;;;13.02;;
49502;SDS011;35409;48.776;9.204;2022-12-05T15:47:42;24.40;;;13.60;;
49502;SDS011;35409;48.776;9.204;2022-12-05T15:50:29;22.63;;;13.13;;
49502;SDS011;35409;48.776;9.204;2022-12-05T15:55:38;25.73;;;15.52;;
49502;SDS011;35409;48.776;9.204;2022-12-05T15:58:16;25.40;;;13.95;;
49502;SDS011;35409;48.776;9.204;2022-12-05T16:00:50;30.73;;;15.20;;
49502;SDS011;35409;48.776;9.204;2022-12-05T16:03:27;28.02;;;15.15;;
49502;SDS011;35409;48.776;9.204;2022-12-05T16:06:14;25.27;;;15.25;;
49502;SDS011;35409;48.776;9.204;2022-12-05T16:08:48;26.77;;;15.15;;
49502;SDS011;35409;48.776;9.204;2022-12-05T16:11:14;36.42;;;16.58;;
49502;SDS011;35409;48.776;9.204;2022-12-05T16:13:44;32.50;;;16.73;;
49502;SDS011;35409;48.776;9.204;2022-12-05T16:16:14;29.05;;;16.70;;
49502;SDS011;35409;48.776;9.204;2022-12-05T16:18:53;29.08;;;16.17;;
49502;SDS011;35409;48.776;9.204;2022-12-05T16:21:36;27.60;;;16.20;;
49502;SDS011;35409;48.776;9.204;2022-12-05T16:24:06;28.38;;;16.40;;
49502;SDS011;35409;48.776;9.204;2022-12-05T16:26:42;29.77;;;15.98;;
49502;SDS011;35409;48.776;9.204;2022-12-05T16:29:29;27.73;;;17.45;;
49502;SDS011;35409;48.776;9.204;2022-12-05T16:31:57;24.40;;;15.15;;
49502;SDS011;35409;48.776;9.204;2022-12-05T16:34:28;26.15;;;15.93;;
49502;SDS011;35409;48.776;9.204;2022-12-05T16:36:57;27.17;;;15.25;;
49502;SDS011;35409;48.776;9.204;2022-12-05T16:39:26;25.55;;;15.32;;
49502;SDS011;35409;48.776;9.204;2022-12-05T16:41:52;25.53;;;14.73;;
49502;SDS011;35409;48.776;9.204;2022-12-05T16:47:21;24.15;;;14.38;;
49502;SDS011;35409;48.776;9.204;2022-12-05T16:49:48;24.70;;;14.30;;
49502;SDS011;35409;48.776;9.204;2022-12-05T16:52:14;27.40;;;15.20;;
49502;SDS011;35409;48.776;9.204;2022-12-05T16:54:41;25.20;;;15.10;;
49502;SDS011;35409;48.776;9.204;2022-12-05T16:57:11;24.83;;;14.87;;
49502;SDS011;35409;48.776;9.204;2022-12-05T16:59:38;22.20;;;13.93;;
49502;SDS011;35409;48.776;9.204;2022-12-05T17:02:15;24.92;;;15.75;;
49502;SDS011;35409;48.776;9.204;2022-12-05T17:04:43;28.17;;;16.65;;
49502;SDS011;35409;48.776;9.204;2022-12-05T17:07:10;27.25;;;17.15;;
49502;SDS011;35409;48.776;9.204;2022-12-05T17:09:36;27.13;;;16.02;;
49502;SDS011;35409;48.776;9.204;2022-12-05T17:12:03;26.95;;;15.80;;
49502;SDS011;35409;48.776;9.204;2022-12-05T17:14:35;25.35;;;14.70;;
49502;SDS011;35409;48.776;9.204;2022-12-05T17:17:00;26.30;;;16.33;;
49502;SDS011;35409;48.776;9.204;2022-12-05T17:19:26;29.48;;;15.55;;
49502;SDS011;35409;48.776;9.204;2022-12-05T17:21:53;26.63;;;15.00;;
49502;SDS011;35409;48.776;9.204;2022-12-05T17:24:19;28.88;;;15.75;;
49502;SDS011;35409;48.776;9.204;2022-12-05T17:26:44;27.33;;;15.57;;
49502;SDS011;35409;48.776;9.204;2022-12-05T17:29:11;27.55;;;16.02;;
49502;SDS011;35409;48.776;9.204;2022-12-05T17:31:37;25.48;;;15.18;;
49502;SDS011;35409;48.776;9.204;2022-12-05T17:34:05;25.23;;;15.52;;
49502;SDS011;35409;48.776;9.204;2022-12-05T17:36:37;29.10;;;15.25;;
49502;SDS011;35409;48.776;9.204;2022-12-05T17:39:02;25.30;;;14.82;;